Terminal Aerodrome Forecast
Issued by NWS Wilmington, OH

Current Version | Previous Version | Graphics & Text | Print | Product List | Glossary On
Versions: 1 2 3 4 5 6 7 8 9 10 11 12 13 14 15 16 17 18 19 20 21
000
FTUS41 KILN 250533
TAFDAY
TAF
KDAY 250533Z 2506/2606 20012KT P6SM FEW070 BKN210
     FM251400 18012G22KT P6SM OVC140
     FM252300 12009KT P6SM OVC090=

USA.gov is the U.S. government's official web portal to all federal, state and local government web resources and services.